Flight Track Log - Related Links

Times and Time Zones

All times are in EDT time to prevent confusion due to time zone crossing. See the N591ML flight status page for this flight to view local times or setup timezone preferences in your user account.

Time Position Orientation Groundspeed Altitude Reporting Facility
EDT Latitude Longitude Course Direction KTS MPH feet Rate Location/Type
Wed 11:06:05 AM 45.4500 -73.7167 360° North 10 12 100  Level Montreal Center
Wed 11:07:05 AM 45.4500 -73.7167 360° North 30 35 100  Level Montreal Center
Wed 11:08:05 AM 45.4500 -73.7167 360° North 20 23 100 50 Level Montreal Center
Wed 11:09:05 AM 45.4667 -73.7167 360° North 150 173 200 1,250 Climbing Montreal Center
Wed 11:10:05 AM 45.5000 -73.6500 54° Northeast 190 219 2,600 2,250 Climbing Montreal Center
Wed 11:11:05 AM 45.5500 -73.6000 35° Northeast 270 311 4,700 2,750 Climbing Montreal Center
Wed 11:12:05 AM 45.6000 -73.6500 325° Northwest 270 311 8,100 3,000 Climbing Montreal Center
Wed 11:13:05 AM 45.5833 -73.7333 254° West 270 311 10,700 2,500 Climbing Montreal Center
Wed 11:14:05 AM 45.5833 -73.8667 270° West 280 322 13,100 2,400 Climbing Montreal Center
Wed 11:15:05 AM 45.5500 -73.9500 240° Southwest 280 322 15,500 2,150 Climbing Montreal Center
Wed 11:16:05 AM 45.5667 -74.0833 280° West 280 322 17,400 1,850 Climbing Montreal Center
Wed 11:17:05 AM 45.5500 -74.1667 254° West 280 322 19,200 1,700 Climbing Montreal Center
Wed 11:18:05 AM 45.5333 -74.3000 260° West 300 345 20,800 1,650 Climbing Montreal Center
Wed 11:19:05 AM 45.5167 -74.4167 259° West 300 345 22,500 1,700 Climbing Montreal Center
Wed 11:20:05 AM 45.4833 -74.5333 248° West 300 345 24,200 1,300 Climbing Montreal Center
Wed 11:21:05 AM 45.4667 -74.6500 259° West 300 345 25,100 1,000 Climbing Montreal Center
Wed 11:22:05 AM 45.4500 -74.8000 261° West 320 368 26,200 1,100 Climbing Montreal Center
Wed 11:23:05 AM 45.4167 -74.9167 248° West 330 380 27,300 1,150 Climbing Montreal Center
Wed 11:24:05 AM 45.4000 -75.0333 259° West 330 380 28,500 1,150 Climbing Montreal Center
Wed 11:25:05 AM 45.3667 -75.1500 248° West 320 368 29,600 950 Climbing Montreal Center
Wed 11:26:05 AM 45.3333 -75.2833 250° West 330 380 30,400 750 Climbing Montreal Center
Wed 11:27:05 AM 45.3167 -75.4000 259° West 330 380 31,100 650 Climbing Montreal Center
Wed 11:28:05 AM 45.2833 -75.5333 250° West 330 380 31,700 550 Climbing Montreal Center
Wed 11:29:05 AM 45.2500 -75.6667 250° West 340 391 32,200 500 Climbing Montreal Center
Wed 11:30:05 AM 45.2167 -75.7833 248° West 350 403 32,700 500 Climbing Montreal Center
Wed 11:31:05 AM 45.1833 -75.9167 251° West 350 403 33,200 500 Climbing Montreal Center
Wed 11:32:05 AM 45.1667 -76.0333 259° West 350 403 33,700 650 Climbing Montreal Center
Wed 11:33:05 AM 45.1333 -76.1833 253° West 340 391 34,500 650 Climbing Montreal Center
Wed 11:34:05 AM 45.1000 -76.3000 248° West 340 391 35,000 450 Climbing Montreal Center
Wed 11:35:05 AM 45.0667 -76.4167 248° West 340 391 35,400 404 Climbing Montreal Center
Wed 11:35:34 AM 45.0500 -76.4667 245° Southwest 340 391 35,600 404 Climbing Toronto Center
Wed 11:36:34 AM 45.0167 -76.5833 248° West 330 380 36,000 264 Climbing Toronto Center
Wed 11:37:05 AM 45.0167 -76.6833 270° West 330 380 36,000  Level Montreal Center
Wed 11:38:05 AM 44.9833 -76.8167 251° West 340 391 36,000  Level Montreal Center
Wed 11:39:05 AM 44.9500 -76.9333 248° West 350 403 36,000  Level Montreal Center
Wed 11:39:34 AM 44.9333 -76.9667 235° Southwest 350 403 36,000  Level Toronto Center
Wed 11:40:34 AM 44.9000 -77.1167 253° West 360 414 36,000  Level Toronto Center
Wed 11:41:34 AM 44.8667 -77.2333 248° West 360 414 36,000  Level Toronto Center
Wed 11:42:05 AM 44.8500 -77.3333 257° West 360 414 36,000  Level Montreal Center
Wed 11:43:05 AM 44.8333 -77.4833 261° West 370 426 36,000  Level Montreal Center
Wed 11:44:05 AM 44.8000 -77.6167 251° West 370 426 36,000  Level Montreal Center
Wed 11:44:34 AM 44.7667 -77.6333 200° South 370 426 36,000  Level Toronto Center
Wed 11:45:34 AM 44.7333 -77.7833 253° West 360 414 36,000  Level Toronto Center
Wed 11:46:05 AM 44.7167 -77.8833 257° West 360 414 36,000  Level Montreal Center
Wed 11:47:05 AM 44.6833 -78.0000 248° West 360 414 36,000  Level Montreal Center
Wed 11:48:05 AM 44.6500 -78.1500 253° West 350 403 36,000  Level Montreal Center
Wed 11:48:34 AM 44.6333 -78.1833 235° Southwest 360 414 36,000  Level Toronto Center
Wed 11:49:34 AM 44.6000 -78.3000 248° West 350 403 36,000  Level Toronto Center
Wed 11:50:05 AM 44.6000 -78.3833 270° West 350 403 36,000  Level Montreal Center
Wed 11:50:34 AM 44.5667 -78.4333 227° Southwest 350 403 36,000  Level Toronto Center
Wed 11:51:34 AM 44.5500 -78.5500 259° West 350 403 36,000  Level Toronto Center
Wed 11:52:34 AM 44.5167 -78.7000 253° West 350 403 36,000  Level Toronto Center
Wed 11:53:34 AM 44.4833 -78.8167 248° West 350 403 36,000  Level Toronto Center
Wed 11:54:34 AM 44.4333 -78.9500 242° Southwest 350 403 36,000  Level Toronto Center
Wed 11:55:34 AM 44.4000 -79.0667 248° West 350 403 36,000  Level Toronto Center
Wed 11:56:34 AM 44.3667 -79.2167 253° West 350 403 36,000  Level Toronto Center
Wed 11:57:34 AM 44.3333 -79.3333 248° West 350 403 36,000  Level Toronto Center
Wed 11:58:34 AM 44.3000 -79.4667 251° West 350 403 36,000  Level Toronto Center
Wed 11:59:34 AM 44.2667 -79.5833 248° West 350 403 36,000  Level Toronto Center
Wed 12:00:34 PM 44.2333 -79.7333 253° West 350 403 36,000  Level Toronto Center
Wed 12:01:34 PM 44.2000 -79.8500 248° West 350 403 36,000  Level Toronto Center
Wed 12:02:34 PM 44.1667 -79.9833 251° West 360 414 36,000  Level Toronto Center
Wed 12:03:34 PM 44.1333 -80.1000 248° West 350 403 36,000  Level Toronto Center
Wed 12:04:34 PM 44.1000 -80.2333 251° West 350 403 36,000  Level Toronto Center
Wed 12:05:34 PM 44.0667 -80.3500 248° West 350 403 36,000  Level Toronto Center
Wed 12:06:34 PM 44.0333 -80.4667 248° West 350 403 36,000  Level Toronto Center
Wed 12:07:34 PM 43.9833 -80.6000 243° Southwest 350 403 36,000  Level Toronto Center
Wed 12:08:34 PM 43.9500 -80.7167 248° West 350 403 36,000  Level Toronto Center
Wed 12:09:34 PM 43.9000 -80.8667 245° Southwest 350 403 36,000  Level Toronto Center
Wed 12:10:34 PM 43.8667 -80.9667 245° Southwest 350 403 36,000  Level Toronto Center
Wed 12:11:34 PM 43.8333 -81.1167 253° West 350 403 36,000  Level Toronto Center
Wed 12:12:34 PM 43.8000 -81.2333 248° West 350 403 36,000  Level Toronto Center
Wed 12:13:34 PM 43.7667 -81.3667 251° West 350 403 36,000  Level Toronto Center
Wed 12:14:34 PM 43.7333 -81.4833 248° West 360 414 36,000  Level Toronto Center
Wed 12:15:34 PM 43.7000 -81.6167 251° West 360 414 36,000  Level Toronto Center
Wed 12:16:34 PM 43.6500 -81.7333 239° Southwest 360 414 36,000  Level Toronto Center
Wed 12:17:34 PM 43.6000 -81.8667 243° Southwest 360 414 36,000  Level Toronto Center
Wed 12:18:34 PM 43.5333 -81.9833 232° Southwest 370 426 36,000  Level Toronto Center
Wed 12:19:34 PM 43.4833 -82.1000 239° Southwest 370 426 36,000  Level Toronto Center
Wed 12:20:33 PM 43.4614 -82.2247 256° West 372 428 36,000  Level Cleveland Center
Wed 12:21:33 PM 43.4117 -82.3464 241° Southwest 372 428 36,000  Level Cleveland Center
Wed 12:22:33 PM 43.3678 -82.4736 245° Southwest 372 428 36,000  Level Cleveland Center
Wed 12:23:33 PM 43.3325 -82.6011 249° West 362 417 36,000  Level Cleveland Center
Wed 12:24:33 PM 43.2947 -82.7253 247° West 362 417 36,000  Level Cleveland Center
Wed 12:25:33 PM 43.2611 -82.8553 250° West 362 417 36,000  Level Cleveland Center
Wed 12:26:33 PM 43.2231 -82.9819 248° West 362 417 36,000  Level Cleveland Center
Wed 12:27:33 PM 43.1869 -83.1144 250° West 367 422 36,000  Level Cleveland Center
Wed 12:28:33 PM 43.1506 -83.2439 249° West 367 422 36,000  Level Cleveland Center
Wed 12:29:33 PM 43.1122 -83.3731 248° West 367 422 36,000  Level Cleveland Center
Wed 12:30:33 PM 43.0756 -83.5022 249° West 367 422 36,000  Level Cleveland Center
Wed 12:31:33 PM 43.0367 -83.6369 248° West 372 428 36,000  Level Cleveland Center
Wed 12:32:33 PM 42.9978 -83.7683 248° West 372 428 36,000  Level Cleveland Center
Wed 12:33:33 PM 42.9586 -83.8997 248° West 372 428 36,000 150 Level Cleveland Center
Wed 12:34:33 PM 42.9217 -84.0253 248° West 372 428 36,300 464 Climbing Cleveland Center
Wed 12:36:34 PM 42.8333 -84.3000 246° West 360 414 37,400 490 Climbing Toronto Center
Wed 12:37:00 PM 42.8325 -84.3297 268° West 354 407 37,500 400 Climbing Chicago Center
Wed 12:37:34 PM 42.8000 -84.4000 238° Southwest 340 391 37,800 393 Climbing Toronto Center
Wed 12:38:01 PM 42.7969 -84.4481 265° West 342 394 37,900 135 Climbing Chicago Center
Wed 12:39:03 PM 42.7608 -84.5689 248° West 344 396 38,000 48 Climbing Chicago Center
Wed 12:40:05 PM 42.7239 -84.6883 247° West 344 396 38,000  Level Chicago Center
Wed 12:41:07 PM 42.6789 -84.8372 248° West 354 407 38,000  Level Chicago Center
Wed 12:42:09 PM 42.6411 -84.9600 247° West 353 406 38,000  Level Chicago Center
Wed 12:43:11 PM 42.6031 -85.0867 248° West 358 412 38,000  Level Chicago Center
Wed 12:44:13 PM 42.5633 -85.2139 247° West 363 418 38,000  Level Chicago Center
Wed 12:45:15 PM 42.5239 -85.3408 247° West 365 420 38,000  Level Chicago Center
Wed 12:46:17 PM 42.4831 -85.4703 247° West 370 426 38,000  Level Chicago Center
Wed 12:47:18 PM 42.4425 -85.6011 247° West 374 430 38,000  Level Chicago Center
Wed 12:48:20 PM 42.3933 -85.7561 247° West 376 433 38,000  Level Chicago Center
Wed 12:49:22 PM 42.3522 -85.8875 247° West 379 436 38,000  Level Chicago Center
Wed 12:50:24 PM 42.3100 -86.0183 246° West 378 435 38,000  Level Chicago Center
Wed 12:51:26 PM 42.2661 -86.1569 247° West 375 432 38,000  Level Chicago Center
Wed 12:52:28 PM 42.2247 -86.2878 247° West 379 436 38,000  Level Chicago Center
Wed 12:53:30 PM 42.1822 -86.4161 246° West 378 435 38,000  Level Chicago Center
Wed 12:54:32 PM 42.1411 -86.5453 247° West 377 434 38,000  Level Chicago Center
Wed 12:55:34 PM 42.0939 -86.6892 246° West 376 433 38,000  Level Chicago Center
Wed 12:56:36 PM 42.0531 -86.8175 247° West 375 432 38,000  Level Chicago Center
Wed 12:57:38 PM 42.0114 -86.9472 247° West 378 435 38,000  Level Chicago Center
Wed 12:58:39 PM 41.9686 -87.0750 246° West 376 433 38,000  Level Chicago Center
Wed 12:59:41 PM 41.9172 -87.2294 246° West 378 435 38,000  Level Chicago Center
Wed 01:00:43 PM 41.8744 -87.3581 246° West 378 435 38,000  Level Chicago Center
Wed 01:01:45 PM 41.8303 -87.4844 245° Southwest 376 433 38,000  Level Chicago Center
Wed 01:02:47 PM 41.7886 -87.6131 247° West 379 436 38,000  Level Chicago Center
Wed 01:03:49 PM 41.7453 -87.7411 246° West 380 437 38,000  Level Chicago Center
Wed 01:04:51 PM 41.6925 -87.8942 245° Southwest 382 440 38,000  Level Chicago Center
Wed 01:05:53 PM 41.6497 -88.0208 246° West 380 437 38,000  Level Chicago Center
Wed 01:06:55 PM 41.6061 -88.1469 245° Southwest 382 440 38,000  Level Chicago Center
Wed 01:07:57 PM 41.5625 -88.2739 245° Southwest 384 442 38,000  Level Chicago Center
Wed 01:08:59 PM 41.5131 -88.4283 247° West 384 442 38,000  Level Chicago Center
Wed 01:10:01 PM 41.4742 -88.5592 248° West 384 442 38,000  Level Chicago Center
Wed 01:11:03 PM 41.4342 -88.6914 248° West 387 445 38,000  Level Chicago Center
Wed 01:12:05 PM 41.3947 -88.8222 248° West 385 443 38,000  Level Chicago Center
Wed 01:13:07 PM 41.3542 -88.9536 248° West 387 445 38,000  Level Chicago Center
Wed 01:14:09 PM 41.3061 -89.1111 248° West 385 443 38,000  Level Chicago Center
Wed 01:15:11 PM 41.2725 -89.2228 248° West 389 448 38,000  Level Chicago Center
Wed 01:16:13 PM 41.2244 -89.3808 248° West 385 443 38,000  Level Chicago Center
Wed 01:17:15 PM 41.1839 -89.5142 248° West 389 448 38,000  Level Chicago Center
Wed 01:18:17 PM 41.1425 -89.6464 247° West 391 450 38,000  Level Chicago Center
Wed 01:19:19 PM 41.0997 -89.7772 247° West 391 450 38,000  Level Chicago Center
Wed 01:20:21 PM 41.0569 -89.9086 247° West 391 450 38,000  Level Chicago Center
Wed 01:21:23 PM 41.0047 -90.0667 246° West 394 453 38,000  Level Chicago Center
Wed 01:22:25 PM 40.9622 -90.1936 246° West 396 456 38,000  Level Chicago Center
Wed 01:23:27 PM 40.9178 -90.3328 247° West 399 459 38,000  Level Chicago Center
Wed 01:24:30 PM 40.8742 -90.4664 247° West 397 457 38,000  Level Chicago Center
Wed 01:25:32 PM 40.8283 -90.6003 246° West 401 461 38,000  Level Chicago Center
Wed 01:26:34 PM 40.7722 -90.7628 246° West 405 466 38,000  Level Chicago Center
Wed 01:27:36 PM 40.7269 -90.8975 246° West 404 465 38,000  Level Chicago Center
Wed 01:28:38 PM 40.6800 -91.0333 246° West 408 470 38,000  Level Chicago Center
Wed 01:29:40 PM 40.6347 -91.1694 246° West 408 470 38,000  Level Chicago Center
Wed 01:30:42 PM 40.5828 -91.3186 245° Southwest 408 470 38,000  Level Chicago Center
Wed 01:31:44 PM 40.5369 -91.4531 246° West 407 468 38,000  Level Chicago Center
Wed 01:32:46 PM 40.4922 -91.5883 247° West 407 468 38,000  Level Chicago Center
Wed 01:33:48 PM 40.4456 -91.7231 246° West 407 468 38,000  Level Chicago Center
Wed 01:34:50 PM 40.3897 -91.8828 245° Southwest 406 467 38,000  Level Chicago Center
Wed 01:35:05 PM 40.3797 -91.9092 244° Southwest 405 466 38,000  Level Kansas City Center
Wed 01:36:07 PM 40.3314 -92.0419 245° Southwest 405 466 38,000  Level Kansas City Center
Wed 01:37:09 PM 40.2831 -92.1747 245° Southwest 405 466 38,000  Level Kansas City Center
Wed 01:38:12 PM 40.2356 -92.3100 245° Southwest 409 471 38,000  Level Kansas City Center
Wed 01:39:14 PM 40.1761 -92.4697 244° Southwest 407 468 38,000  Level Kansas City Center
Wed 01:40:16 PM 40.1322 -92.6014 246° West 409 471 38,000  Level Kansas City Center
Wed 01:41:18 PM 40.0831 -92.7281 243° Southwest 407 468 38,000  Level Kansas City Center
Wed 01:42:20 PM 40.0250 -92.8769 243° Southwest 413 475 38,000  Level Kansas City Center
Wed 01:43:22 PM 39.9733 -93.0092 243° Southwest 411 473 38,000  Level Kansas City Center
Wed 01:44:24 PM 39.9214 -93.1428 243° Southwest 415 478 38,000  Level Kansas City Center
Wed 01:45:26 PM 39.8708 -93.2750 244° Southwest 413 475 38,000  Level Kansas City Center
Wed 01:46:28 PM 39.8067 -93.4333 242° Southwest 414 476 38,000  Level Kansas City Center
Wed 01:47:30 PM 39.7556 -93.5686 244° Southwest 417 480 38,000  Level Kansas City Center
Wed 01:48:32 PM 39.7031 -93.6997 243° Southwest 413 475 38,000  Level Kansas City Center
Wed 01:49:34 PM 39.6489 -93.8364 243° Southwest 413 475 38,000  Level Kansas City Center
Wed 01:50:36 PM 39.5894 -93.9864 243° Southwest 419 482 38,000  Level Kansas City Center
Wed 01:51:38 PM 39.5378 -94.1139 242° Southwest 416 479 38,000  Level Kansas City Center
Wed 01:52:40 PM 39.4783 -94.2633 243° Southwest 417 480 38,000  Level Kansas City Center
Wed 01:53:42 PM 39.4267 -94.3914 242° Southwest 418 481 38,000  Level Kansas City Center
Wed 01:54:43 PM 39.3750 -94.5181 242° Southwest 416 479 38,000 -49 Level Kansas City Center
Wed 01:55:45 PM 39.3147 -94.6661 242° Southwest 416 479 37,900 -290 Descending Kansas City Center
Wed 01:56:47 PM 39.2608 -94.7897 241° Southwest 415 478 37,400 -484 Descending Kansas City Center
Wed 01:57:49 PM 39.1950 -94.9281 238° Southwest 403 464 36,900 -524 Descending Kansas City Center
Wed 01:58:53 PM 39.1389 -95.0433 238° Southwest 390 449 36,300 -1,095 Descending Kansas City Center
Wed 01:59:55 PM 39.0706 -95.1897 239° Southwest 416 479 34,600 -1,500 Descending Kansas City Center
Wed 02:00:57 PM 39.0069 -95.3200 238° Southwest 430 495 33,200 -1,161 Descending Kansas City Center
Wed 02:01:59 PM 38.9478 -95.4450 239° Southwest 437 503 32,200 -1,016 Descending Kansas City Center
Wed 02:03:01 PM 38.8767 -95.5928 238° Southwest 434 499 31,100 -1,065 Descending Kansas City Center
Wed 02:04:03 PM 38.8158 -95.7183 238° Southwest 432 497 30,000 -1,355 Descending Kansas City Center
Wed 02:05:05 PM 38.7467 -95.8628 238° Southwest 425 489 28,300 -1,645 Descending Kansas City Center
Wed 02:06:07 PM 38.6886 -95.9794 238° Southwest 410 472 26,600 -1,790 Descending Kansas City Center
Wed 02:07:09 PM 38.6231 -96.1128 238° Southwest 400 460 24,600 -1,258 Descending Kansas City Center
Wed 02:08:11 PM 38.5694 -96.2239 238° Southwest 385 443 24,000 -387 Descending Kansas City Center
Wed 02:09:13 PM 38.5083 -96.3472 238° Southwest 370 426 23,800 -871 Descending Kansas City Center
Wed 02:10:15 PM 38.4561 -96.4533 238° Southwest 368 423 22,200 -1,548 Descending Kansas City Center
Wed 02:11:17 PM 38.3986 -96.5672 237° Southwest 367 422 20,600 -1,500 Descending Kansas City Center
Wed 02:12:19 PM 38.3472 -96.6711 238° Southwest 359 413 19,100 -1,574 Descending Kansas City Center
Wed 02:13:19 PM 38.2869 -96.7883 237° Southwest 347 399 17,400 -1,671 Descending Kansas City Center
Wed 02:13:38 PM 38.2714 -96.8203 238° Southwest 345 397 16,900 -1,313 Descending Kansas City Center
Wed 02:14:23 PM 38.2436 -96.8767 238° Southwest 341 392 16,000 -1,500 Descending Kansas City Center
Wed 02:14:38 PM 38.2208 -96.9217 237° Southwest 337 388 15,400 -1,742 Descending Kansas City Center
Wed 02:15:25 PM 38.1750 -96.9878 229° Southwest 334 384 14,200 -1,761 Descending Kansas City Center
Wed 02:16:27 PM 38.1053 -97.0514 216° Southwest 310 357 12,200 -1,822 Descending Kansas City Center
Wed 02:17:40 PM 38.0244 -97.1236 215° Southwest 277 319 10,100 -1,657 Descending Kansas City Center
Wed 02:18:41 PM 37.9686 -97.1750 216° Southwest 246 283 8,500 -1,487 Descending Kansas City Center
Wed 02:19:33 PM 37.9272 -97.2122 215° Southwest 242 278 7,300 -1,438 Descending Kansas City Center
Wed 02:20:42 PM 37.8586 -97.2747 216° Southwest 229 264 5,600 -1,246 Descending Kansas City Center
Wed 02:21:43 PM 37.8125 -97.3164 216° Southwest 205 236 4,600 -1,034 Descending Kansas City Center
Wed 02:22:38 PM 37.7728 -97.3511 215° Southwest 203 234 3,600 -821 Descending Kansas City Center
Wed 02:23:40 PM 37.7344 -97.3836 214° Southwest 186 214 3,000 -619 Descending Kansas City Center
Wed 02:24:44 PM 37.6989 -97.4003 200° South 118 136 2,300 -629 Descending Kansas City Center
Wed 02:25:44 PM 37.6722 -97.4131 201° Southwest 127 146 1,700 -393 Descending Kansas City Center
Wed 02:26:46 PM 37.6422 -97.4272 201° Southwest 125 144 1,500 -194 Descending Kansas City Center
Wed 02:28:00 PM 37.6333 -97.4167 202° Southwest  Level FlightAware Approximate
Wed 02:35:00 PM 37.6499 -97.4331 202° Southwest  Level Estimated
Wed 02:36:00 PM 37.6499 -97.4331 202° Southwest  Level Estimated

Login

Don't have an account? Register now (free) for customized features, flight alerts, and more!